Terminal Aerodrome Forecast
Issued by NWS El Paso, TX

Home | Current Version | Previous Version | Text Only | Print | Product List | Glossary On
Versions: 1 2 3 4 5 6 7 8 9 10 11 12 13 14 15 16 17
000
FTUS44 KEPZ 221700
TAFELP
TAF
KELP 221738Z 2218/2318 VRB03KT P6SM FEW020 SCT110 BKN180
     FM222200 24007KT P6SM VCSH SCT050 BKN200
     FM230600 24006KT P6SM SCT060 BKN120
     FM231700 26009KT P6SM SCT060 SCT250=

USA.gov is the U.S. government's official web portal to all federal, state and local government web resources and services.